createdAt,value
2019-05-23T00:02:36.303Z,13.70
2019-05-23T00:05:08.371Z,13.22
2019-05-23T00:07:39.747Z,14.05
2019-05-23T00:10:12.056Z,12.93
2019-05-23T00:12:43.957Z,13.05
2019-05-23T00:15:18.485Z,12.98
2019-05-23T00:17:49.942Z,12.60
2019-05-23T00:20:22.269Z,12.28
2019-05-23T00:22:53.034Z,12.20
2019-05-23T00:25:24.601Z,11.22
2019-05-23T00:27:56.889Z,12.68
2019-05-23T00:30:30.092Z,12.73
2019-05-23T00:33:02.455Z,12.25
2019-05-23T00:35:35.457Z,12.37
2019-05-23T00:38:07.002Z,12.50
2019-05-23T00:40:38.099Z,13.05
2019-05-23T00:43:10.432Z,11.63
2019-05-23T00:45:41.836Z,11.38
2019-05-23T00:48:14.868Z,12.33
2019-05-23T00:50:45.908Z,12.53
2019-05-23T00:53:16.928Z,12.35
2019-05-23T00:55:49.539Z,11.63
2019-05-23T00:58:20.911Z,13.72
2019-05-23T01:00:52.333Z,11.83
2019-05-23T01:03:23.440Z,11.90
2019-05-23T01:05:54.481Z,11.78
2019-05-23T01:08:27.162Z,11.33
2019-05-23T01:11:00.026Z,10.80
2019-05-23T01:13:32.684Z,10.50
2019-05-23T01:16:05.073Z,12.25
2019-05-23T01:18:36.435Z,11.55
2019-05-23T01:21:09.151Z,12.47
2019-05-23T01:23:41.596Z,13.25
2019-05-23T01:26:13.466Z,12.75
2019-05-23T01:28:45.786Z,12.33
2019-05-23T01:31:17.794Z,11.60
2019-05-23T01:33:50.237Z,14.45
2019-05-23T01:36:22.549Z,13.03
2019-05-23T01:38:53.991Z,12.43
2019-05-23T01:41:30.067Z,11.25
2019-05-23T01:44:01.690Z,10.63
2019-05-23T01:46:32.959Z,10.38
2019-05-23T01:49:05.239Z,10.20
2019-05-23T01:51:37.637Z,10.18
2019-05-23T01:54:09.025Z,10.68
2019-05-23T01:56:40.601Z,9.40
2019-05-23T01:59:11.976Z,8.75
2019-05-23T02:01:43.017Z,8.90
2019-05-23T02:04:14.179Z,8.30
2019-05-23T02:06:55.409Z,8.90
2019-05-23T02:09:27.106Z,10.80
2019-05-23T02:11:58.202Z,8.50
2019-05-23T02:14:29.797Z,8.50
2019-05-23T02:17:01.386Z,8.20
2019-05-23T02:19:33.042Z,7.75
2019-05-23T02:22:04.344Z,7.65
2019-05-23T02:24:35.573Z,7.35
2019-05-23T02:27:08.807Z,8.23
2019-05-23T02:29:42.077Z,7.53
2019-05-23T02:32:14.635Z,7.97
2019-05-23T02:34:45.973Z,7.72
2019-05-23T02:37:18.027Z,8.00
2019-05-23T02:39:48.656Z,7.60
2019-05-23T02:42:20.979Z,7.30
2019-05-23T02:44:52.419Z,7.40
2019-05-23T02:47:25.737Z,9.50
2019-05-23T02:49:57.594Z,9.38
2019-05-23T02:52:32.160Z,10.32
2019-05-23T02:55:10.769Z,12.98
2019-05-23T02:57:42.784Z,8.60
2019-05-23T03:00:17.246Z,8.05
2019-05-23T03:02:51.680Z,46.88
2019-05-23T03:05:25.728Z,11.25
2019-05-23T03:07:59.391Z,9.35
2019-05-23T03:10:34.037Z,8.28
2019-05-23T03:13:07.001Z,9.65
2019-05-23T03:15:39.608Z,10.43
2019-05-23T03:18:12.889Z,9.60
2019-05-23T03:20:44.116Z,8.53
2019-05-23T03:23:16.791Z,9.03
2019-05-23T03:25:50.203Z,13.03
2019-05-23T03:28:22.160Z,9.28
2019-05-23T03:31:21.687Z,8.68
2019-05-23T03:33:28.324Z,8.88
2019-05-23T03:36:00.563Z,8.03
2019-05-23T03:38:32.618Z,9.50
2019-05-23T03:41:06.235Z,9.10
2019-05-23T03:43:38.043Z,9.28
2019-05-23T03:46:10.408Z,8.65
2019-05-23T03:48:42.048Z,9.23
2019-05-23T03:51:13.376Z,9.00
2019-05-23T03:53:44.579Z,9.18
2019-05-23T03:56:16.525Z,10.03
2019-05-23T03:58:48.792Z,9.70
2019-05-23T04:01:21.626Z,8.00
2019-05-23T04:03:52.751Z,8.95
2019-05-23T04:06:23.970Z,8.63
2019-05-23T04:08:55.541Z,9.00
2019-05-23T04:11:27.335Z,8.23
2019-05-23T04:13:58.731Z,9.18
2019-05-23T04:16:30.840Z,8.30
2019-05-23T04:19:01.770Z,8.80
2019-05-23T04:21:33.075Z,8.50
2019-05-23T04:24:04.304Z,8.38
2019-05-23T04:26:54.996Z,8.68
2019-05-23T04:29:26.481Z,8.90
2019-05-23T04:32:07.862Z,8.25
2019-05-23T04:34:30.159Z,8.98
2019-05-23T04:37:01.471Z,8.75
2019-05-23T04:39:32.459Z,9.15
2019-05-23T04:42:03.355Z,8.45
2019-05-23T04:44:34.258Z,8.88
2019-05-23T04:47:06.684Z,9.23
2019-05-23T04:49:38.209Z,8.70
2019-05-23T04:52:10.338Z,9.38
2019-05-23T04:54:42.107Z,8.18
2019-05-23T04:57:14.261Z,9.25
2019-05-23T04:59:45.209Z,8.93
2019-05-23T05:02:25.665Z,9.10
2019-05-23T05:04:48.831Z,9.03
2019-05-23T05:07:19.752Z,9.78
2019-05-23T05:09:50.817Z,8.83
2019-05-23T05:12:22.566Z,9.38
2019-05-23T05:14:53.542Z,8.88
2019-05-23T05:17:25.031Z,8.65
2019-05-23T05:19:56.100Z,8.85
2019-05-23T05:22:27.570Z,8.53
2019-05-23T05:24:58.456Z,8.80
2019-05-23T05:27:29.479Z,9.20
2019-05-23T05:30:02.241Z,9.45
2019-05-23T05:32:44.057Z,9.15
2019-05-23T05:35:08.369Z,8.65
2019-05-23T05:37:39.239Z,8.60
2019-05-23T05:40:11.336Z,9.23
2019-05-23T05:42:44.432Z,8.68
2019-05-23T05:45:16.240Z,9.10
2019-05-23T05:47:47.469Z,8.80
2019-05-23T05:50:18.947Z,8.63
2019-05-23T05:52:49.975Z,8.73
2019-05-23T05:55:21.115Z,8.80
2019-05-23T05:57:52.031Z,8.68
2019-05-23T06:00:24.790Z,8.68
2019-05-23T06:03:04.521Z,9.58
2019-05-23T06:05:30.747Z,8.88
2019-05-23T06:08:02.490Z,8.95
2019-05-23T06:10:33.810Z,8.78
2019-05-23T06:13:04.867Z,8.85
2019-05-23T06:15:36.205Z,9.75
2019-05-23T06:18:07.460Z,9.15
2019-05-23T06:20:40.904Z,9.00
2019-05-23T06:23:12.941Z,8.55
2019-05-23T06:25:43.981Z,9.25
2019-05-23T06:28:16.731Z,9.05
2019-05-23T06:30:49.012Z,9.43
2019-05-23T06:33:23.880Z,9.18
2019-05-23T06:35:52.809Z,9.05
2019-05-23T06:38:24.429Z,8.58
2019-05-23T06:40:57.159Z,9.23
2019-05-23T06:43:28.367Z,9.00
2019-05-23T06:46:00.179Z,8.90
2019-05-23T06:48:31.463Z,8.95
2019-05-23T06:51:03.672Z,8.60
2019-05-23T06:53:34.520Z,9.05
2019-05-23T06:56:09.796Z,8.73
2019-05-23T06:58:40.628Z,8.98
2019-05-23T07:01:11.850Z,8.95
2019-05-23T07:03:43.994Z,9.58
2019-05-23T07:06:17.846Z,8.80
2019-05-23T07:08:48.716Z,9.20
2019-05-23T07:11:21.309Z,8.90
2019-05-23T07:13:52.983Z,8.85
2019-05-23T07:16:23.776Z,9.38
2019-05-23T07:18:54.738Z,10.05
2019-05-23T07:21:26.277Z,9.48
2019-05-23T07:23:57.146Z,9.90
2019-05-23T07:26:28.619Z,11.33
2019-05-23T07:29:01.296Z,9.98
2019-05-23T07:31:35.519Z,9.30
2019-05-23T07:34:05.539Z,8.83
2019-05-23T07:36:37.081Z,10.78
2019-05-23T07:39:11.637Z,10.78
2019-05-23T07:41:42.780Z,10.90
2019-05-23T07:44:13.736Z,9.55
2019-05-23T07:46:44.796Z,8.50
2019-05-23T07:49:15.834Z,10.03
2019-05-23T07:51:48.163Z,8.18
2019-05-23T07:54:20.461Z,8.20
2019-05-23T07:56:51.391Z,7.78
2019-05-23T07:59:22.286Z,8.45
2019-05-23T08:01:58.554Z,8.68
2019-05-23T08:04:30.052Z,9.70
2019-05-23T08:07:01.268Z,8.53
2019-05-23T08:09:33.101Z,9.33
2019-05-23T08:12:04.140Z,9.73
2019-05-23T08:14:35.797Z,8.95
2019-05-23T08:17:08.603Z,8.63
2019-05-23T08:19:49.189Z,8.23
2019-05-23T08:22:12.128Z,10.55
2019-05-23T08:24:45.277Z,8.98
2019-05-23T08:27:17.333Z,8.38
2019-05-23T08:29:50.307Z,8.60
2019-05-23T08:32:22.648Z,8.50
2019-05-23T08:34:54.168Z,8.53
2019-05-23T08:37:25.168Z,8.68
2019-05-23T08:39:56.552Z,8.98
2019-05-23T08:42:27.887Z,8.95
2019-05-23T08:45:03.305Z,9.73
2019-05-23T08:47:34.467Z,9.63
2019-05-23T08:50:07.795Z,11.30
2019-05-23T08:52:38.856Z,9.93
2019-05-23T08:55:12.316Z,9.85
2019-05-23T08:57:43.417Z,10.08
2019-05-23T09:00:14.721Z,10.20
2019-05-23T09:02:48.463Z,13.48
2019-05-23T09:05:20.488Z,11.28
2019-05-23T09:07:51.760Z,11.97
2019-05-23T09:10:23.897Z,10.15
2019-05-23T09:12:56.032Z,10.32
2019-05-23T09:15:27.897Z,10.15
2019-05-23T09:17:59.599Z,9.80
2019-05-23T09:20:31.014Z,9.78
2019-05-23T09:23:02.145Z,9.63
2019-05-23T09:25:33.939Z,6.85
2019-05-23T09:38:58.305Z,3.37
2019-05-23T09:41:39.128Z,1.90
2019-05-23T09:44:10.415Z,2.42
2019-05-23T09:46:41.629Z,2.55
2019-05-23T09:49:13.293Z,2.42
2019-05-23T09:51:55.217Z,2.60
2019-05-23T09:54:25.993Z,4.92
2019-05-23T09:56:56.874Z,8.03
2019-05-23T09:59:28.097Z,7.78
2019-05-23T10:02:00.363Z,8.65
2019-05-23T10:04:32.473Z,8.00
2019-05-23T10:07:03.707Z,8.45
2019-05-23T10:10:30.603Z,7.60
2019-05-23T10:16:26.370Z,6.47
2019-05-23T10:18:57.614Z,6.05
2019-05-23T10:21:28.549Z,6.15
2019-05-23T10:23:59.394Z,6.45
2019-05-23T10:26:30.346Z,6.83
2019-05-23T10:29:01.246Z,6.00
2019-05-23T10:31:32.025Z,5.85
2019-05-23T10:34:02.795Z,6.00
2019-05-23T10:36:33.687Z,6.50
2019-05-23T10:39:04.773Z,6.22
2019-05-23T10:41:35.664Z,5.50
2019-05-23T10:44:07.350Z,6.00
2019-05-23T10:46:38.257Z,6.03
2019-05-23T10:49:09.449Z,5.85
2019-05-23T10:51:40.407Z,5.60
2019-05-23T10:54:11.709Z,5.35
2019-05-23T10:56:42.461Z,6.53
2019-05-23T10:59:13.437Z,6.25
2019-05-23T11:01:45.053Z,6.40
2019-05-23T11:04:16.070Z,7.72
2019-05-23T11:06:47.070Z,6.08
2019-05-23T11:09:18.420Z,5.15
2019-05-23T11:11:49.087Z,4.28
2019-05-23T11:14:19.932Z,3.90
2019-05-23T11:16:51.341Z,3.52
2019-05-23T11:19:22.359Z,3.90
2019-05-23T11:21:53.251Z,4.03
2019-05-23T11:24:24.276Z,4.10
2019-05-23T11:26:55.206Z,3.92
2019-05-23T11:29:27.397Z,4.05
2019-05-23T11:31:58.618Z,4.30
2019-05-23T11:34:30.066Z,3.83
2019-05-23T11:37:00.849Z,4.28
2019-05-23T11:39:32.229Z,4.40
2019-05-23T11:42:03.256Z,4.25
2019-05-23T11:44:34.193Z,4.28
2019-05-23T11:47:05.385Z,4.37
2019-05-23T11:49:36.334Z,4.37
2019-05-23T11:52:07.635Z,4.08
2019-05-23T11:54:39.498Z,3.83
2019-05-23T11:57:10.853Z,3.80
2019-05-23T11:59:42.065Z,3.58
2019-05-23T12:02:14.146Z,2.55
2019-05-23T12:04:45.362Z,2.85
2019-05-23T12:07:17.618Z,2.42
2019-05-23T12:09:48.827Z,1.90
2019-05-23T12:12:19.890Z,1.67
2019-05-23T12:14:50.705Z,1.50
2019-05-23T12:17:22.627Z,1.27
2019-05-23T12:19:53.540Z,0.95
2019-05-23T12:22:24.712Z,0.93
2019-05-23T12:24:55.466Z,0.70
2019-05-23T12:27:26.452Z,1.35
2019-05-23T12:29:57.652Z,1.70
2019-05-23T12:32:28.391Z,1.40
2019-05-23T12:35:10.558Z,1.67
2019-05-23T12:37:31.416Z,1.37
2019-05-23T12:40:02.628Z,1.47
2019-05-23T12:42:33.482Z,1.47
2019-05-23T12:45:04.438Z,1.47
2019-05-23T12:47:36.503Z,1.77
2019-05-23T12:50:09.814Z,2.10
2019-05-23T12:52:40.730Z,1.70
2019-05-23T12:55:11.979Z,1.60
2019-05-23T12:57:43.459Z,1.98
2019-05-23T13:00:16.670Z,1.60
2019-05-23T13:02:47.814Z,1.55
2019-05-23T13:05:19.382Z,1.45
2019-05-23T13:07:50.423Z,1.75
2019-05-23T13:10:24.501Z,1.50
2019-05-23T13:12:53.673Z,1.50
2019-05-23T13:15:25.328Z,1.65
2019-05-23T13:17:56.162Z,1.70
2019-05-23T13:20:27.049Z,2.00
2019-05-23T13:22:58.165Z,4.28
2019-05-23T13:25:30.110Z,3.80
2019-05-23T13:28:01.370Z,2.80
2019-05-23T13:30:32.742Z,2.00
2019-05-23T13:33:04.143Z,2.50
2019-05-23T13:35:35.521Z,1.95
2019-05-23T13:38:06.559Z,3.12
2019-05-23T13:40:37.365Z,2.00
2019-05-23T13:43:09.224Z,2.80
2019-05-23T13:45:40.200Z,1.70
2019-05-23T13:48:11.021Z,2.10
2019-05-23T13:50:42.221Z,2.20
2019-05-23T13:53:13.323Z,1.70
2019-05-23T13:55:44.789Z,1.80
2019-05-23T13:58:16.627Z,1.70
2019-05-23T14:00:47.666Z,1.30
2019-05-23T14:03:18.872Z,1.40
2019-05-23T14:05:49.453Z,1.90
2019-05-23T14:08:20.378Z,1.40
2019-05-23T14:10:51.318Z,1.37
2019-05-23T14:13:22.572Z,1.65
2019-05-23T14:15:53.917Z,1.22
2019-05-23T14:18:26.283Z,1.25
2019-05-23T14:20:57.054Z,1.82
2019-05-23T14:23:29.273Z,1.50
2019-05-23T14:26:00.903Z,1.82
2019-05-23T14:28:32.048Z,1.30
2019-05-23T14:31:04.272Z,1.82
2019-05-23T14:33:36.428Z,1.70
2019-05-23T14:36:08.822Z,1.65
2019-05-23T14:38:39.882Z,1.30
2019-05-23T14:41:11.113Z,1.40
2019-05-23T14:43:42.265Z,1.90
2019-05-23T14:46:14.602Z,1.47
2019-05-23T14:48:46.654Z,1.70
2019-05-23T14:51:18.889Z,1.50
2019-05-23T14:53:49.554Z,1.62
2019-05-23T14:56:21.762Z,1.40
2019-05-23T14:58:53.569Z,1.85
2019-05-23T15:01:26.067Z,1.60
2019-05-23T15:03:57.059Z,1.80
2019-05-23T15:06:28.052Z,1.42
2019-05-23T15:08:58.910Z,1.92
2019-05-23T15:11:29.857Z,1.40
2019-05-23T15:14:00.936Z,1.30
2019-05-23T15:16:31.948Z,2.30
2019-05-23T15:19:02.869Z,3.08
2019-05-23T15:21:33.791Z,3.77
2019-05-23T15:24:04.907Z,3.92
2019-05-23T15:26:35.924Z,2.62
2019-05-23T15:29:07.508Z,2.20
2019-05-23T15:31:38.402Z,2.22
2019-05-23T15:34:09.286Z,2.12
2019-05-23T15:36:40.167Z,2.15
2019-05-23T15:39:11.097Z,1.95
2019-05-23T15:41:42.086Z,1.80
2019-05-23T15:44:26.182Z,1.50
2019-05-23T15:46:45.077Z,1.60
2019-05-23T15:49:16.666Z,1.60
2019-05-23T15:51:53.545Z,1.50
2019-05-23T15:54:22.329Z,1.40
2019-05-23T15:56:54.475Z,1.90
2019-05-23T15:59:26.627Z,1.42
2019-05-23T16:01:58.753Z,1.80
2019-05-23T16:04:29.819Z,1.80
2019-05-23T16:07:01.315Z,2.05
2019-05-23T16:09:32.476Z,2.27
2019-05-23T16:12:03.232Z,2.05
2019-05-23T16:14:34.281Z,2.58
2019-05-23T16:17:06.518Z,3.10
2019-05-23T16:19:37.754Z,3.22
2019-05-23T16:22:08.846Z,3.55
2019-05-23T16:24:40.245Z,4.53
2019-05-23T16:27:11.492Z,4.92
2019-05-23T16:29:42.660Z,6.30
2019-05-23T16:32:13.559Z,5.35
2019-05-23T16:34:44.331Z,5.03
2019-05-23T16:37:15.585Z,4.53
2019-05-23T16:39:48.548Z,4.83
2019-05-23T16:42:19.072Z,4.50
2019-05-23T16:44:49.991Z,4.22
2019-05-23T16:47:21.368Z,4.10
2019-05-23T16:49:52.248Z,5.40
2019-05-23T16:52:23.079Z,4.97
2019-05-23T16:54:55.207Z,5.05
2019-05-23T16:57:27.557Z,4.80
2019-05-23T16:59:59.799Z,5.22
2019-05-23T17:02:31.827Z,5.00
2019-05-23T17:05:09.952Z,5.45
2019-05-23T17:07:38.093Z,6.05
2019-05-23T17:10:10.468Z,5.60
2019-05-23T17:12:41.179Z,6.12
2019-05-23T17:15:13.696Z,6.42
2019-05-23T17:18:01.311Z,6.70
2019-05-23T17:20:20.072Z,7.35
2019-05-23T17:22:51.735Z,7.00
2019-05-23T17:25:23.949Z,7.08
2019-05-23T17:27:56.084Z,7.70
2019-05-23T17:30:26.730Z,6.90
2019-05-23T17:32:58.008Z,7.72
2019-05-23T17:35:28.780Z,7.72
2019-05-23T17:37:59.612Z,8.20
2019-05-23T17:40:30.641Z,8.35
2019-05-23T17:43:01.403Z,8.48
2019-05-23T17:45:32.655Z,9.68
2019-05-23T17:48:03.608Z,9.98
2019-05-23T17:50:34.992Z,9.58
2019-05-23T17:53:06.095Z,10.58
2019-05-23T17:55:37.460Z,10.53
2019-05-23T17:58:11.003Z,10.90
2019-05-23T18:00:43.830Z,10.90
2019-05-23T18:03:15.458Z,10.63
2019-05-23T18:05:46.573Z,11.05
2019-05-23T18:08:18.721Z,13.10
2019-05-23T18:10:49.975Z,13.55
2019-05-23T18:13:20.880Z,14.78
2019-05-23T18:15:51.834Z,13.28
2019-05-23T18:18:22.960Z,13.05
2019-05-23T18:20:54.409Z,12.82
2019-05-23T18:23:25.462Z,11.10
2019-05-23T18:25:56.796Z,13.18
2019-05-23T18:28:27.681Z,11.68
2019-05-23T18:31:00.020Z,11.08
2019-05-23T18:33:31.323Z,11.97
2019-05-23T18:36:03.304Z,11.80
2019-05-23T18:38:34.527Z,12.07
2019-05-23T18:41:08.954Z,10.45
2019-05-23T18:43:39.267Z,11.08
2019-05-23T18:46:11.303Z,10.75
2019-05-23T18:48:42.796Z,11.43
2019-05-23T18:51:13.978Z,10.23
2019-05-23T18:53:45.104Z,10.38
2019-05-23T18:56:16.451Z,9.68
2019-05-23T18:58:47.511Z,9.45
2019-05-23T19:01:19.597Z,10.08
2019-05-23T19:03:50.744Z,9.95
2019-05-23T19:06:22.342Z,9.48
2019-05-23T19:08:53.194Z,9.45
2019-05-23T19:11:24.344Z,9.35
2019-05-23T19:13:55.297Z,8.85
2019-05-23T19:16:26.519Z,8.70
2019-05-23T19:18:57.360Z,8.33
2019-05-23T19:21:29.665Z,7.20
2019-05-23T19:24:00.744Z,7.80
2019-05-23T19:26:32.425Z,7.58
2019-05-23T19:29:03.102Z,8.58
2019-05-23T19:31:34.494Z,8.00
2019-05-23T19:34:05.972Z,7.35
2019-05-23T19:36:37.360Z,6.97
2019-05-23T19:39:09.079Z,7.10
2019-05-23T19:41:39.852Z,7.33
2019-05-23T19:44:10.739Z,7.45
2019-05-23T19:46:42.147Z,8.10
2019-05-23T19:49:13.887Z,7.50
2019-05-23T19:51:44.890Z,7.17
2019-05-23T19:54:15.926Z,6.83
2019-05-23T19:56:46.610Z,8.45
2019-05-23T19:59:20.809Z,7.10
2019-05-23T20:01:51.421Z,7.22
2019-05-23T20:04:27.090Z,8.08
2019-05-23T20:06:56.781Z,7.87
2019-05-23T20:09:27.762Z,7.75
2019-05-23T20:11:58.736Z,8.08
2019-05-23T20:14:29.650Z,8.08
2019-05-23T20:17:00.462Z,8.18
2019-05-23T20:19:31.283Z,8.25
2019-05-23T20:22:02.255Z,7.80
2019-05-23T20:24:33.242Z,7.75
2019-05-23T20:27:03.999Z,8.70
2019-05-23T20:29:34.603Z,8.33
2019-05-23T20:32:06.548Z,8.20
2019-05-23T20:34:37.610Z,8.60
2019-05-23T20:37:09.034Z,8.38
2019-05-23T20:39:41.097Z,8.38
2019-05-23T20:42:12.253Z,9.90
2019-05-23T20:44:43.378Z,8.70
2019-05-23T20:47:14.312Z,10.60
2019-05-23T20:49:46.421Z,10.30
2019-05-23T20:52:17.636Z,10.65
2019-05-23T20:54:48.420Z,11.33
2019-05-23T20:57:19.745Z,12.07
2019-05-23T20:59:50.555Z,11.90
2019-05-23T21:02:21.499Z,11.88
2019-05-23T21:04:52.235Z,12.30
2019-05-23T21:07:23.310Z,12.85
2019-05-23T21:09:54.281Z,12.40
2019-05-23T21:12:30.178Z,12.03
2019-05-23T21:14:57.085Z,11.85
2019-05-23T21:17:28.919Z,10.98
2019-05-23T21:19:59.705Z,11.85
2019-05-23T21:22:30.775Z,11.83
2019-05-23T21:25:01.670Z,11.33
2019-05-23T21:27:32.584Z,11.75
2019-05-23T21:30:03.280Z,11.15
2019-05-23T21:32:34.004Z,11.55
2019-05-23T21:35:05.005Z,11.22
2019-05-23T21:37:36.016Z,10.98
2019-05-23T21:40:08.145Z,10.95
2019-05-23T21:42:47.696Z,10.68
2019-05-23T21:45:11.801Z,10.05
2019-05-23T21:47:42.522Z,9.33
2019-05-23T21:50:13.719Z,10.45
2019-05-23T21:52:44.639Z,10.10
2019-05-23T21:55:17.702Z,11.28
2019-05-23T21:57:48.266Z,10.88
2019-05-23T22:00:22.741Z,10.45
2019-05-23T22:02:53.638Z,10.95
2019-05-23T22:05:24.838Z,10.85
2019-05-23T22:07:55.494Z,11.40
2019-05-23T22:10:26.645Z,11.28
2019-05-23T22:13:04.409Z,11.83
2019-05-23T22:15:32.481Z,12.93
2019-05-23T22:18:03.391Z,12.60
2019-05-23T22:20:34.599Z,12.18
2019-05-23T22:23:05.830Z,11.95
2019-05-23T22:25:36.709Z,12.45
2019-05-23T22:28:07.497Z,11.20
2019-05-23T22:30:38.808Z,11.48
2019-05-23T22:33:10.249Z,11.18
2019-05-23T22:35:41.209Z,9.88
